createdAt,value
2022-11-02T00:00:19.595Z,14.05
2022-11-02T00:02:46.099Z,13.96
2022-11-02T00:05:13.719Z,13.87
2022-11-02T00:07:41.155Z,13.85
2022-11-02T00:10:08.379Z,13.78
2022-11-02T00:12:34.982Z,13.85
2022-11-02T00:15:01.497Z,13.81
2022-11-02T00:17:28.700Z,13.89
2022-11-02T00:19:55.185Z,13.88
2022-11-02T00:22:22.564Z,13.89
2022-11-02T00:24:48.983Z,13.90
2022-11-02T00:27:15.423Z,13.82
2022-11-02T00:29:41.960Z,13.81
2022-11-02T00:32:08.403Z,13.83
2022-11-02T00:34:34.821Z,13.77
2022-11-02T00:37:01.275Z,13.79
2022-11-02T00:39:27.757Z,13.89
2022-11-02T00:41:54.219Z,13.87
2022-11-02T00:44:20.676Z,13.83
2022-11-02T00:46:47.118Z,13.83
2022-11-02T00:49:13.598Z,13.92
2022-11-02T00:51:40.499Z,13.76
2022-11-02T00:54:06.999Z,13.70
2022-11-02T00:56:33.847Z,13.72
2022-11-02T00:59:03.809Z,13.61
2022-11-02T01:01:31.698Z,13.44
2022-11-02T01:03:59.242Z,13.52
2022-11-02T01:06:25.997Z,13.39
2022-11-02T01:08:53.251Z,13.43
2022-11-02T01:11:21.409Z,13.52
2022-11-02T01:13:49.821Z,13.70
2022-11-02T01:16:18.168Z,13.69
2022-11-02T01:18:44.600Z,13.58
2022-11-02T01:21:12.100Z,13.42
2022-11-02T01:23:39.218Z,13.45
2022-11-02T01:26:06.772Z,13.49
2022-11-02T01:28:33.304Z,13.51
2022-11-02T01:31:00.042Z,13.55
2022-11-02T01:33:26.925Z,13.50
2022-11-02T01:35:54.553Z,13.55
2022-11-02T01:38:23.128Z,13.57
2022-11-02T01:40:49.792Z,13.53
2022-11-02T01:43:22.271Z,13.36
2022-11-02T01:45:51.449Z,13.46
2022-11-02T01:48:18.889Z,13.57
2022-11-02T01:50:46.248Z,13.77
2022-11-02T01:53:12.758Z,13.82
2022-11-02T01:55:40.089Z,13.74
2022-11-02T01:58:09.988Z,13.87
2022-11-02T02:00:38.547Z,13.71
2022-11-02T02:03:13.711Z,13.64
2022-11-02T02:05:41.937Z,13.72
2022-11-02T02:08:09.982Z,13.64
2022-11-02T02:10:36.484Z,13.61
2022-11-02T02:13:06.100Z,13.61
2022-11-02T02:15:41.344Z,13.62
2022-11-02T02:18:12.948Z,13.61
2022-11-02T02:20:39.492Z,13.56
2022-11-02T02:23:24.215Z,13.66
2022-11-02T02:26:08.183Z,13.80
2022-11-02T02:28:34.723Z,13.69
2022-11-02T02:31:20.349Z,13.57
2022-11-02T02:33:46.783Z,13.49
2022-11-02T02:36:13.224Z,13.36
2022-11-02T02:38:48.585Z,13.36
2022-11-02T02:41:38.537Z,13.58
2022-11-02T02:44:06.709Z,13.54
2022-11-02T02:46:39.192Z,13.46
2022-11-02T02:49:10.029Z,13.39
2022-11-02T02:51:37.914Z,13.44
2022-11-02T02:54:26.019Z,13.43
2022-11-02T02:56:57.498Z,13.49
2022-11-02T02:59:29.693Z,13.49
2022-11-02T03:01:58.876Z,13.54
2022-11-02T03:04:25.738Z,13.50
2022-11-02T03:06:54.659Z,13.45
2022-11-02T03:09:24.435Z,13.33
2022-11-02T03:11:59.607Z,13.27
2022-11-02T03:14:37.112Z,13.31
2022-11-02T03:17:20.461Z,13.37
2022-11-02T03:20:09.205Z,13.38
2022-11-02T03:23:06.448Z,13.44
2022-11-02T03:25:52.765Z,13.39
2022-11-02T03:28:19.778Z,13.42
2022-11-02T03:30:54.985Z,13.75
2022-11-02T03:33:30.579Z,13.67
2022-11-02T03:36:05.540Z,13.46
2022-11-02T03:38:38.598Z,13.45
2022-11-02T03:41:06.235Z,13.46
2022-11-02T03:43:34.983Z,13.39
2022-11-02T03:46:03.031Z,13.13
2022-11-02T03:48:32.382Z,13.10
2022-11-02T03:51:02.249Z,12.81
2022-11-02T03:53:40.373Z,12.84
2022-11-02T03:56:08.703Z,12.98
2022-11-02T03:58:37.632Z,12.83
2022-11-02T04:01:08.277Z,12.75
2022-11-02T04:03:39.528Z,12.94
2022-11-02T04:06:06.508Z,12.91
2022-11-02T04:08:37.496Z,12.99
2022-11-02T04:11:25.722Z,13.01
2022-11-02T04:14:13.841Z,13.13
2022-11-02T04:16:42.448Z,13.21
2022-11-02T04:19:28.029Z,13.33
2022-11-02T04:22:17.824Z,13.53
2022-11-02T04:25:06.082Z,13.38
2022-11-02T04:27:33.519Z,13.32
2022-11-02T04:30:00.617Z,13.19
2022-11-02T04:32:48.597Z,13.01
2022-11-02T04:35:17.433Z,12.89
2022-11-02T04:38:04.756Z,12.66
2022-11-02T04:40:35.452Z,12.85
2022-11-02T04:43:04.476Z,13.00
2022-11-02T04:45:33.132Z,13.13
2022-11-02T04:48:09.855Z,13.20
2022-11-02T04:50:37.606Z,13.14
2022-11-02T04:53:07.038Z,13.02
2022-11-02T04:55:34.701Z,12.94
2022-11-02T04:58:01.354Z,12.97
2022-11-02T05:00:28.024Z,12.98
2022-11-02T05:02:54.707Z,13.00
2022-11-02T05:05:22.966Z,12.92
2022-11-02T05:07:51.442Z,12.72
2022-11-02T05:10:18.374Z,12.81
2022-11-02T05:12:46.842Z,12.74
2022-11-02T05:15:13.932Z,12.58
2022-11-02T05:17:40.512Z,12.51
2022-11-02T05:20:08.781Z,12.53
2022-11-02T05:22:35.283Z,12.49
2022-11-02T05:25:01.701Z,12.40
2022-11-02T05:27:29.416Z,12.23
2022-11-02T05:29:56.535Z,12.30
2022-11-02T05:32:23.085Z,12.35
2022-11-02T05:34:49.759Z,12.40
2022-11-02T05:37:16.269Z,12.46
2022-11-02T05:39:45.112Z,12.22
2022-11-02T05:42:14.697Z,12.22
2022-11-02T05:44:41.245Z,12.15
2022-11-02T05:47:08.055Z,12.10
2022-11-02T05:49:34.904Z,12.21
2022-11-02T05:52:01.460Z,12.35
2022-11-02T05:54:27.935Z,12.34
2022-11-02T05:56:54.433Z,12.17
2022-11-02T05:59:20.900Z,12.08
2022-11-02T06:01:47.503Z,12.10
2022-11-02T06:04:14.138Z,12.13
2022-11-02T06:06:40.673Z,12.10
2022-11-02T06:09:07.548Z,11.96
2022-11-02T06:11:34.060Z,12.08
2022-11-02T06:14:00.563Z,12.25
2022-11-02T06:16:27.016Z,12.22
2022-11-02T06:18:53.432Z,12.02
2022-11-02T06:21:19.940Z,12.07
2022-11-02T06:23:47.008Z,12.16
2022-11-02T06:26:13.469Z,12.27
2022-11-02T06:28:39.927Z,12.19
2022-11-02T06:31:07.069Z,12.14
2022-11-02T06:33:33.522Z,12.19
2022-11-02T06:35:59.989Z,12.05
2022-11-02T06:38:26.411Z,12.13
2022-11-02T06:40:57.295Z,12.15
2022-11-02T06:43:24.558Z,12.23
2022-11-02T06:45:53.923Z,12.20
2022-11-02T06:48:20.390Z,12.20
2022-11-02T06:50:46.895Z,12.26
2022-11-02T06:53:13.372Z,12.36
2022-11-02T06:55:39.921Z,12.32
2022-11-02T06:58:06.474Z,12.51
2022-11-02T07:00:33.067Z,12.56
2022-11-02T07:03:00.289Z,12.63
2022-11-02T07:05:26.836Z,12.71
2022-11-02T07:07:53.577Z,12.96
2022-11-02T07:10:20.009Z,13.21
2022-11-02T07:12:46.499Z,13.68
2022-11-02T07:15:13.761Z,14.08
2022-11-02T07:17:40.864Z,14.50
2022-11-02T07:20:10.439Z,14.98
2022-11-02T07:22:37.197Z,15.48
2022-11-02T07:25:03.824Z,15.69
2022-11-02T07:27:30.232Z,16.17
2022-11-02T07:29:58.179Z,16.90
2022-11-02T07:32:25.697Z,16.80
2022-11-02T07:34:52.219Z,17.13
2022-11-02T07:37:18.697Z,17.33
2022-11-02T07:39:45.169Z,17.18
2022-11-02T07:42:11.601Z,17.15
2022-11-02T07:44:41.720Z,16.95
2022-11-02T07:47:08.135Z,16.88
2022-11-02T07:49:34.576Z,17.55
2022-11-02T07:52:01.022Z,17.99
2022-11-02T07:54:27.502Z,18.90
2022-11-02T07:56:53.985Z,19.52
2022-11-02T07:59:20.396Z,18.71
2022-11-02T08:01:46.967Z,19.11
2022-11-02T08:04:13.583Z,19.08
2022-11-02T08:06:40.137Z,19.50
2022-11-02T08:09:06.601Z,19.48
2022-11-02T08:11:33.043Z,19.39
2022-11-02T08:13:59.480Z,19.06
2022-11-02T08:16:25.985Z,18.97
2022-11-02T08:18:52.476Z,18.74
2022-11-02T08:21:18.949Z,18.20
2022-11-02T08:23:45.626Z,18.40
2022-11-02T08:26:12.286Z,18.29
2022-11-02T08:28:40.367Z,19.20
2022-11-02T08:31:07.689Z,19.70
2022-11-02T08:33:34.162Z,19.55
2022-11-02T08:36:04.784Z,19.77
2022-11-02T08:38:31.563Z,19.04
2022-11-02T08:40:58.092Z,18.56
2022-11-02T08:43:24.585Z,19.46
2022-11-02T08:48:37.523Z,19.77
2022-11-02T08:51:05.626Z,19.91
2022-11-02T08:53:32.128Z,20.72
2022-11-02T08:55:59.417Z,20.38
2022-11-02T08:58:26.016Z,20.51
2022-11-02T09:00:53.107Z,20.23
2022-11-02T09:03:26.146Z,20.28
2022-11-02T09:05:56.988Z,20.40
2022-11-02T09:10:58.002Z,21.00
2022-11-02T09:13:27.243Z,20.93
2022-11-02T09:15:55.748Z,20.97
2022-11-02T09:18:22.513Z,21.63
2022-11-02T09:20:49.819Z,19.94
2022-11-02T09:23:17.130Z,20.07
2022-11-02T09:25:44.134Z,20.61
2022-11-02T09:28:11.112Z,20.26
2022-11-02T09:30:37.711Z,20.05
2022-11-02T09:33:05.753Z,19.96
2022-11-02T09:35:34.311Z,19.60
2022-11-02T09:38:01.089Z,19.93
2022-11-02T09:40:31.689Z,19.32
2022-11-02T09:43:04.433Z,18.87
2022-11-02T09:45:34.216Z,18.91
2022-11-02T09:48:26.775Z,19.12
2022-11-02T09:50:57.811Z,19.01
2022-11-02T09:53:47.778Z,19.03
2022-11-02T09:56:16.664Z,19.56
2022-11-02T09:58:44.415Z,19.86
2022-11-02T10:01:26.407Z,19.87
2022-11-02T10:04:14.149Z,20.51
2022-11-02T10:06:44.671Z,20.60
2022-11-02T10:09:26.066Z,19.96
2022-11-02T10:11:57.515Z,20.18
2022-11-02T10:14:29.708Z,19.76
2022-11-02T10:17:04.671Z,20.60
2022-11-02T10:19:34.783Z,19.92
2022-11-02T10:22:01.404Z,19.70
2022-11-02T10:24:39.980Z,19.99
2022-11-02T10:27:14.452Z,20.28
2022-11-02T10:29:59.817Z,20.07
2022-11-02T10:32:26.374Z,20.03
2022-11-02T10:34:59.086Z,20.57
2022-11-02T10:37:58.668Z,20.58
2022-11-02T10:40:28.267Z,21.28
2022-11-02T10:43:12.983Z,21.73
2022-11-02T10:45:46.331Z,22.32
2022-11-02T10:48:18.821Z,22.18
2022-11-02T10:50:54.269Z,24.24
2022-11-02T10:53:40.700Z,23.80
2022-11-02T10:56:07.987Z,23.57
2022-11-02T10:58:36.880Z,24.52
2022-11-02T11:01:07.814Z,22.72
2022-11-02T11:03:34.631Z,23.30
2022-11-02T11:06:03.339Z,23.43
2022-11-02T11:08:35.717Z,23.09
2022-11-02T11:11:17.849Z,23.35
2022-11-02T11:16:35.348Z,22.09
2022-11-02T11:21:51.615Z,22.18
2022-11-02T11:24:34.248Z,22.05
2022-11-02T11:27:02.004Z,21.86
2022-11-02T11:29:32.851Z,22.03
2022-11-02T11:31:59.988Z,21.57
2022-11-02T11:34:28.245Z,21.81
2022-11-02T11:37:03.991Z,21.35
2022-11-02T11:39:31.871Z,21.15
2022-11-02T11:41:59.136Z,21.41
2022-11-02T11:44:25.764Z,21.16
2022-11-02T11:46:54.297Z,21.11
2022-11-02T11:52:27.022Z,21.14
2022-11-02T11:55:01.655Z,21.10
2022-11-02T11:57:30.518Z,20.86
2022-11-02T11:59:59.825Z,21.19
2022-11-02T12:02:31.006Z,21.16
2022-11-02T12:05:02.461Z,20.83
2022-11-02T12:07:56.016Z,20.88
2022-11-02T12:10:28.406Z,20.90
2022-11-02T12:12:54.908Z,20.76
2022-11-02T12:15:27.688Z,20.73
2022-11-02T12:17:54.098Z,20.59
2022-11-02T12:20:39.843Z,20.92
2022-11-02T12:23:06.568Z,21.67
2022-11-02T12:25:44.496Z,21.17
2022-11-02T12:28:14.276Z,21.22
2022-11-02T12:31:02.478Z,21.50
2022-11-02T12:33:39.972Z,21.98
2022-11-02T12:36:06.608Z,22.34
2022-11-02T12:38:38.912Z,22.22
2022-11-02T12:41:10.924Z,22.60
2022-11-02T12:43:37.325Z,22.79
2022-11-02T12:46:19.229Z,22.39
2022-11-02T12:49:00.327Z,22.75
2022-11-02T12:51:32.932Z,22.68
2022-11-02T12:54:02.952Z,22.07
2022-11-02T12:56:40.309Z,22.26
2022-11-02T12:59:10.195Z,21.62
2022-11-02T13:01:44.101Z,21.55
2022-11-02T13:04:10.888Z,21.44
2022-11-02T13:06:40.885Z,21.22
2022-11-02T13:09:10.738Z,21.54
2022-11-02T13:11:43.340Z,21.64
2022-11-02T13:14:15.574Z,21.24
2022-11-02T13:16:46.340Z,21.02
2022-11-02T13:19:16.121Z,20.94
2022-11-02T13:21:45.644Z,20.90
2022-11-02T13:24:15.862Z,20.78
2022-11-02T13:26:43.180Z,20.63
2022-11-02T13:29:15.654Z,20.61
2022-11-02T13:31:45.622Z,20.87
2022-11-02T13:34:14.662Z,20.83
2022-11-02T13:36:42.068Z,20.91
2022-11-02T13:39:22.449Z,21.10
2022-11-02T13:41:51.680Z,20.83
2022-11-02T13:44:43.620Z,20.46
2022-11-02T13:47:16.100Z,20.19
2022-11-02T13:49:44.772Z,20.31
2022-11-02T13:52:15.893Z,20.28
2022-11-02T13:54:52.515Z,20.20
2022-11-02T13:57:45.268Z,20.15
2022-11-02T14:00:22.700Z,20.36
2022-11-02T14:02:51.897Z,20.27
2022-11-02T14:05:28.442Z,20.31
2022-11-02T14:07:59.220Z,20.10
2022-11-02T14:10:25.751Z,19.91
2022-11-02T14:12:52.242Z,19.64
2022-11-02T14:15:18.661Z,19.80
2022-11-02T14:18:11.497Z,19.64
2022-11-02T14:20:42.832Z,19.51
2022-11-02T14:23:09.242Z,19.53
2022-11-02T14:25:55.959Z,19.52
2022-11-02T14:28:30.089Z,19.34
2022-11-02T14:30:56.608Z,19.40
2022-11-02T14:33:26.241Z,19.44
2022-11-02T14:35:57.936Z,19.30
2022-11-02T14:38:33.328Z,19.28
2022-11-02T14:41:07.967Z,19.41
2022-11-02T14:43:37.410Z,19.38
2022-11-02T14:46:16.162Z,19.28
2022-11-02T14:48:44.564Z,19.20
2022-11-02T14:51:21.841Z,19.28
2022-11-02T14:53:50.089Z,19.19
2022-11-02T14:56:16.568Z,19.18
2022-11-02T14:58:49.412Z,19.17
2022-11-02T15:01:16.777Z,19.22
2022-11-02T15:03:43.433Z,19.23
2022-11-02T15:06:19.095Z,19.20
2022-11-02T15:08:55.941Z,19.11
2022-11-02T15:11:41.201Z,18.89
2022-11-02T15:14:26.503Z,18.93
2022-11-02T15:16:54.144Z,18.83
2022-11-02T15:19:41.078Z,18.76
2022-11-02T15:22:26.479Z,18.50
2022-11-02T15:24:54.248Z,18.09
2022-11-02T15:27:21.634Z,18.06
2022-11-02T15:29:48.162Z,18.12
2022-11-02T15:32:22.420Z,18.14
2022-11-02T15:34:50.802Z,17.96
2022-11-02T15:37:20.263Z,17.90
2022-11-02T15:39:50.813Z,18.02
2022-11-02T15:42:37.908Z,17.84
2022-11-02T15:45:20.055Z,17.60
2022-11-02T15:48:01.486Z,17.65
2022-11-02T15:50:34.896Z,17.57
2022-11-02T15:56:00.876Z,17.33
2022-11-02T15:58:46.211Z,17.38
2022-11-02T16:01:26.038Z,17.28
2022-11-02T16:04:02.010Z,17.33
2022-11-02T16:06:34.777Z,17.34
2022-11-02T16:09:02.088Z,17.26
2022-11-02T16:11:28.849Z,17.06
2022-11-02T16:14:14.957Z,17.15
2022-11-02T16:16:48.333Z,17.19
2022-11-02T16:19:18.771Z,16.84
2022-11-02T16:21:45.252Z,16.89
2022-11-02T16:24:11.938Z,16.90
2022-11-02T16:26:38.759Z,16.91
2022-11-02T16:29:07.224Z,16.75
2022-11-02T16:31:33.916Z,16.71
2022-11-02T16:34:03.415Z,16.79
2022-11-02T16:36:31.345Z,16.73
2022-11-02T16:38:57.747Z,16.52
2022-11-02T16:41:28.176Z,16.40
2022-11-02T16:43:55.778Z,16.20
2022-11-02T16:46:29.726Z,16.23
2022-11-02T16:49:05.303Z,16.38
2022-11-02T16:51:31.779Z,16.25
2022-11-02T16:54:16.817Z,16.28
2022-11-02T16:56:47.372Z,16.18
2022-11-02T16:59:14.329Z,16.13
2022-11-02T17:01:41.516Z,16.04
2022-11-02T17:04:14.253Z,16.07
2022-11-02T17:06:43.971Z,15.79
2022-11-02T17:09:22.069Z,15.86
2022-11-02T17:11:49.705Z,16.06
2022-11-02T17:14:18.461Z,16.09
2022-11-02T17:16:59.957Z,16.18
2022-11-02T17:19:41.452Z,16.21
2022-11-02T17:22:28.996Z,16.26
2022-11-02T17:25:19.678Z,16.22
2022-11-02T17:27:46.507Z,16.15
2022-11-02T17:30:31.839Z,16.07
2022-11-02T17:32:58.619Z,16.04
2022-11-02T17:35:27.456Z,15.97
2022-11-02T17:37:54.328Z,15.84
2022-11-02T17:40:21.817Z,15.74
2022-11-02T17:43:00.862Z,15.62
2022-11-02T17:45:28.543Z,15.67
2022-11-02T17:47:56.016Z,15.59
2022-11-02T17:50:23.099Z,15.56
2022-11-02T17:52:50.673Z,15.64
2022-11-02T17:55:18.760Z,15.64
2022-11-02T17:57:45.284Z,15.58
2022-11-02T18:00:12.265Z,15.61
2022-11-02T18:02:40.166Z,15.55
2022-11-02T18:05:26.927Z,15.40
2022-11-02T18:07:54.168Z,15.32
2022-11-02T18:10:21.767Z,15.27
2022-11-02T18:12:48.341Z,15.28
2022-11-02T18:15:16.299Z,15.28
2022-11-02T18:17:42.938Z,15.28
2022-11-02T18:20:10.573Z,15.34
2022-11-02T18:22:37.301Z,15.36
2022-11-02T18:25:04.643Z,15.47
2022-11-02T18:27:31.134Z,15.29
2022-11-02T18:29:57.868Z,15.28
2022-11-02T18:32:24.483Z,15.19
2022-11-02T18:34:50.961Z,15.14
2022-11-02T18:37:17.501Z,15.09
2022-11-02T18:39:43.973Z,15.29
2022-11-02T18:42:10.400Z,15.52
2022-11-02T18:44:36.839Z,15.56
2022-11-02T18:47:04.552Z,15.56
2022-11-02T18:49:30.989Z,15.50
2022-11-02T18:51:57.417Z,15.64
2022-11-02T18:54:23.857Z,15.70
2022-11-02T18:56:50.277Z,15.75
2022-11-02T18:59:16.821Z,15.77
2022-11-02T19:01:43.442Z,15.77
2022-11-02T19:04:16.025Z,15.80
2022-11-02T19:07:02.461Z,15.82
2022-11-02T19:09:31.509Z,15.85
2022-11-02T19:12:01.153Z,15.91
2022-11-02T19:14:33.298Z,15.87
2022-11-02T19:17:00.040Z,15.84
2022-11-02T19:19:26.450Z,15.80
2022-11-02T19:21:53.381Z,15.75
2022-11-02T19:24:21.073Z,15.77
2022-11-02T19:26:47.528Z,15.78
2022-11-02T19:29:13.963Z,15.76
2022-11-02T19:31:40.559Z,15.91
2022-11-02T19:34:07.235Z,15.94
2022-11-02T19:36:33.815Z,15.99
2022-11-02T19:39:03.136Z,15.91
2022-11-02T19:41:30.529Z,15.98
2022-11-02T19:43:57.752Z,16.20
2022-11-02T19:46:24.936Z,16.12
2022-11-02T19:48:51.457Z,16.09
2022-11-02T19:51:22.411Z,16.11
2022-11-02T19:53:50.304Z,16.06
2022-11-02T19:56:17.461Z,16.19
2022-11-02T19:58:45.235Z,15.99
2022-11-02T20:01:13.402Z,16.00
2022-11-02T20:03:40.655Z,15.97
2022-11-02T20:06:08.376Z,15.84
2022-11-02T20:08:34.817Z,15.75
2022-11-02T20:11:01.984Z,15.74
2022-11-02T20:13:28.483Z,15.71
2022-11-02T20:15:57.965Z,15.60
2022-11-02T20:18:24.834Z,15.47
2022-11-02T20:20:52.485Z,15.47
2022-11-02T20:23:19.892Z,15.42
2022-11-02T20:25:49.166Z,15.34
2022-11-02T20:28:15.633Z,15.46
2022-11-02T20:30:42.659Z,15.40
2022-11-02T20:33:09.471Z,15.45
2022-11-02T20:35:36.563Z,15.40
2022-11-02T20:38:03.356Z,15.50
2022-11-02T20:40:32.162Z,15.60
2022-11-02T20:42:58.886Z,15.37
2022-11-02T20:45:25.529Z,15.31
2022-11-02T20:47:51.997Z,15.09
2022-11-02T20:50:20.557Z,15.02
2022-11-02T20:52:52.991Z,15.31
2022-11-02T20:55:19.442Z,15.21
2022-11-02T20:57:47.110Z,15.31
2022-11-02T21:00:14.121Z,15.18
2022-11-02T21:02:40.604Z,15.07
2022-11-02T21:05:07.210Z,14.95
2022-11-02T21:07:33.642Z,14.93
2022-11-02T21:10:00.076Z,14.92
2022-11-02T21:12:45.066Z,15.02
2022-11-02T21:15:11.617Z,14.89
2022-11-02T21:17:38.117Z,15.01
2022-11-02T21:20:35.057Z,14.95
2022-11-02T21:22:51.457Z,14.97
2022-11-02T21:25:18.477Z,14.90
2022-11-02T21:27:44.950Z,14.88
2022-11-02T21:30:11.497Z,14.76
2022-11-02T21:32:37.949Z,14.70
2022-11-02T21:35:04.582Z,14.75
2022-11-02T21:37:31.024Z,14.76
2022-11-02T21:39:57.435Z,14.68
2022-11-02T21:42:23.873Z,14.86
2022-11-02T21:44:50.280Z,14.78
2022-11-02T21:47:16.740Z,14.80
2022-11-02T21:49:43.214Z,14.81
2022-11-02T21:52:09.749Z,14.79
2022-11-02T21:54:36.254Z,14.79
2022-11-02T21:57:02.687Z,14.79
2022-11-02T21:59:29.152Z,14.82
2022-11-02T22:01:55.923Z,14.83
2022-11-02T22:04:25.444Z,14.80
2022-11-02T22:06:52.382Z,14.75
2022-11-02T22:09:18.923Z,14.87
2022-11-02T22:11:45.447Z,14.66
2022-11-02T22:14:12.116Z,14.67
2022-11-02T22:16:39.774Z,14.66
2022-11-02T22:19:13.240Z,14.60
2022-11-02T22:21:41.179Z,14.55
2022-11-02T22:24:07.940Z,14.73
2022-11-02T22:26:35.233Z,14.70
2022-11-02T22:29:02.304Z,14.73
2022-11-02T22:31:29.806Z,14.63
2022-11-02T22:33:57.147Z,14.71
2022-11-02T22:36:24.838Z,15.04
2022-11-02T22:38:53.158Z,14.97
2022-11-02T22:41:21.257Z,15.07
2022-11-02T22:43:48.497Z,15.07
2022-11-02T22:46:15.276Z,15.05
2022-11-02T22:48:42.010Z,15.05
2022-11-02T22:51:08.671Z,15.02
2022-11-02T22:53:35.128Z,15.00
2022-11-02T22:56:03.196Z,15.04
2022-11-02T22:58:30.572Z,14.93
2022-11-02T23:00:57.401Z,14.86
2022-11-02T23:03:23.948Z,14.85
2022-11-02T23:05:50.424Z,14.76
2022-11-02T23:08:16.914Z,14.75
2022-11-02T23:11:02.228Z,14.68
2022-11-02T23:13:28.740Z,14.83
2022-11-02T23:16:21.065Z,14.79
2022-11-02T23:19:27.085Z,14.78
2022-11-02T23:22:20.982Z,14.89
2022-11-02T23:25:07.224Z,14.99
2022-11-02T23:27:34.704Z,14.87
2022-11-02T23:30:19.958Z,15.05
2022-11-02T23:32:46.444Z,14.94
2022-11-02T23:35:31.492Z,14.91
2022-11-02T23:38:04.828Z,15.08
2022-11-02T23:40:31.833Z,14.99
2022-11-02T23:42:58.368Z,15.05
2022-11-02T23:45:24.920Z,15.09
2022-11-02T23:47:57.301Z,15.08
2022-11-02T23:50:43.591Z,15.02
2022-11-02T23:53:29.914Z,15.01
2022-11-02T23:56:15.452Z,15.10
2022-11-02T23:58:42.207Z,15.13
